Time;durP1;ratioP1;P1;durP2;ratioP2;P2;SDS_P1;SDS_P2;PMS_P1;PMS_P2;Temp;Humidity;BMP_temperature;BMP_pressure;BME280_temperature;BME280_humidity;BME280_pressure;Samples;Min_cycle;Max_cycle;Signal;HPM_P1;HPM_P2
2023/04/06 00:00:30;;;;;;;14.38;12.85;;;;;;;4.74;100.00;101331.72;2091121;28;20272;-66
2023/04/06 00:01:30;;;;;;;14.70;13.20;;;;;;;4.86;100.00;101336.13;2093039;28;20183;-66
2023/04/06 00:02:30;;;;;;;15.17;13.00;;;;;;;4.94;100.00;101332.31;2089293;28;20177;-66
2023/04/06 00:03:31;;;;;;;14.27;12.27;;;;;;;4.88;100.00;101336.56;2096897;28;20669;-66
2023/04/06 00:04:31;;;;;;;13.27;11.87;;;;;;;4.85;100.00;101354.59;2090486;28;20174;-66
2023/04/06 00:05:32;;;;;;;13.00;11.67;;;;;;;4.85;100.00;101337.31;2089670;28;20197;-67
2023/04/06 00:06:33;;;;;;;13.53;12.07;;;;;;;4.88;100.00;101333.81;2089777;28;20194;-66
2023/04/06 00:07:34;;;;;;;13.88;12.45;;;;;;;4.87;100.00;101327.53;2089992;28;20673;-66
2023/04/06 00:08:34;;;;;;;14.03;12.30;;;;;;;4.85;100.00;101327.13;2089867;28;20547;-66
2023/04/06 00:09:35;;;;;;;15.80;12.70;;;;;;;4.83;100.00;101326.69;2089738;28;20487;-66
2023/04/06 00:10:35;;;;;;;13.23;11.83;;;;;;;4.86;100.00;101328.69;2089453;28;20263;-66
2023/04/06 00:11:36;;;;;;;13.83;11.77;;;;;;;4.88;100.00;101328.31;2088766;28;20177;-66
2023/04/06 00:12:36;;;;;;;13.80;12.40;;;;;;;4.88;100.00;101328.31;2090215;28;20186;-66
2023/04/06 00:13:37;;;;;;;14.93;12.23;;;;;;;4.88;100.00;101331.06;2089895;28;20190;-65
2023/04/06 00:14:37;;;;;;;13.07;11.70;;;;;;;4.42;100.00;101250.94;2089706;28;20692;-66
2023/04/06 00:15:38;;;;;;;12.40;11.10;;;;;;;4.28;100.00;101253.56;2091922;28;20226;-66
2023/04/06 00:16:38;;;;;;;13.50;12.10;;;;;;;4.11;100.00;101223.94;2089543;28;20224;-66
2023/04/06 00:17:39;;;;;;;14.77;12.07;;;;;;;4.76;100.00;101323.88;2080888;28;20247;-66
2023/04/06 00:18:40;;;;;;;13.80;12.43;;;;;;;4.79;100.00;101323.16;2080562;28;20187;-66
2023/04/06 00:19:40;;;;;;;14.20;12.80;;;;;;;4.79;100.00;101330.56;2089670;28;20234;-66
2023/04/06 00:20:41;;;;;;;13.07;11.77;;;;;;;4.68;100.00;101307.72;2090190;28;20230;-66
2023/04/06 00:21:41;;;;;;;13.37;12.07;;;;;;;4.75;100.00;101324.25;2089821;28;20667;-66
2023/04/06 00:22:42;;;;;;;13.13;11.83;;;;;;;4.75;100.00;101324.25;2091043;28;20257;-66
2023/04/06 00:23:42;;;;;;;13.93;12.53;;;;;;;4.76;100.00;101318.38;2094643;28;20241;-66
2023/04/06 00:24:43;;;;;;;13.57;12.20;;;;;;;4.58;100.00;101284.47;2093620;28;20204;-66
2023/04/06 00:25:43;;;;;;;12.47;11.17;;;;;;;4.85;100.00;101321.63;2089246;28;20194;-66
2023/04/06 00:26:43;;;;;;;13.63;10.97;;;;;;;4.41;100.00;101240.38;2089826;28;20186;-66
2023/04/06 00:27:44;;;;;;;12.90;11.60;;;;;;;4.66;100.00;101286.13;2089772;28;20188;-66
2023/04/06 00:28:45;;;;;;;12.47;11.17;;;;;;;4.95;100.00;101318.22;2090348;28;20185;-66
2023/04/06 00:29:45;;;;;;;13.80;11.53;;;;;;;4.98;100.00;101313.91;2080780;28;20202;-66
2023/04/06 00:30:46;;;;;;;12.50;11.20;;;;;;;4.92;100.00;101312.69;2080279;28;20223;-66
2023/04/06 00:31:46;;;;;;;13.33;11.93;;;;;;;4.91;100.00;101317.38;2089457;28;20600;-65
2023/04/06 00:32:46;;;;;;;12.80;11.50;;;;;;;4.96;100.00;101317.03;2089122;28;20194;-66
2023/04/06 00:33:48;;;;;;;13.10;11.77;;;;;;;4.99;100.00;101316.28;2089663;28;20250;-66
2023/04/06 00:34:48;;;;;;;13.07;11.75;;;;;;;4.98;100.00;101308.41;2080596;28;20249;-66
2023/04/06 00:35:49;;;;;;;13.10;11.70;;;;;;;4.94;100.00;101297.41;2080471;28;20262;-66
2023/04/06 00:36:50;;;;;;;12.90;11.60;;;;;;;5.00;100.00;101309.63;2090135;28;20196;-66
2023/04/06 00:37:50;;;;;;;13.10;11.80;;;;;;;5.02;100.00;101309.25;2090085;28;20434;-66
2023/04/06 00:38:51;;;;;;;12.80;11.23;;;;;;;5.07;100.00;101309.69;2089470;28;20198;-66
2023/04/06 00:39:51;;;;;;;12.90;11.50;;;;;;;5.03;100.00;101305.31;2093810;28;20250;-66
2023/04/06 00:40:52;;;;;;;13.00;11.60;;;;;;;4.98;100.00;101298.22;2097193;28;20188;-65
2023/04/06 00:41:53;;;;;;;12.40;11.10;;;;;;;5.06;100.00;101304.56;2094116;28;20212;-66
2023/04/06 00:42:54;;;;;;;12.68;11.27;;;;;;;5.01;100.00;101300.22;2089009;28;20217;-67
2023/04/06 00:43:55;;;;;;;12.40;11.10;;;;;;;5.04;100.00;101304.97;2089427;28;20187;-65
2023/04/06 00:44:58;;;;;;;12.13;10.93;;;;;;;4.57;100.00;101227.22;2089389;28;20175;-66
2023/04/06 00:45:58;;;;;;;14.07;11.43;;;;;;;5.04;100.00;101304.16;2089781;28;20192;-66
2023/04/06 00:46:58;;;;;;;12.33;10.97;;;;;;;4.98;100.00;101295.47;2089310;28;20192;-66
2023/04/06 00:47:59;;;;;;;11.50;10.33;;;;;;;4.92;100.00;101304.44;2080707;28;20191;-65
2023/04/06 00:49:00;;;;;;;13.07;11.67;;;;;;;3.76;100.00;101122.09;2085523;28;20189;-67
2023/04/06 00:50:00;;;;;;;12.63;11.33;;;;;;;4.91;100.00;101294.59;2097101;28;20188;-66
2023/04/06 00:51:01;;;;;;;12.80;11.30;;;;;;;4.87;100.00;101302.81;2094223;28;20777;-66
2023/04/06 00:52:02;;;;;;;10.60;9.50;;;;;;;4.76;100.00;101281.91;2089130;28;20272;-66
2023/04/06 00:53:02;;;;;;;12.57;11.27;;;;;;;4.82;100.00;101289.41;2088962;28;20218;-66
2023/04/06 00:54:03;;;;;;;12.77;11.47;;;;;;;4.80;100.00;101289.03;2090200;28;20189;-66
2023/04/06 00:55:04;;;;;;;13.27;11.73;;;;;;;4.80;100.00;101290.97;2095008;28;20222;-66
2023/04/06 00:56:04;;;;;;;12.67;11.37;;;;;;;4.44;100.00;101226.69;2090538;28;20205;-66
2023/04/06 00:57:05;;;;;;;12.40;11.13;;;;;;;4.84;100.00;101287.09;2089174;28;20189;-66
2023/04/06 00:58:05;;;;;;;13.40;12.00;;;;;;;4.70;100.00;101266.94;2089492;28;20205;-66
2023/04/06 00:59:06;;;;;;;12.43;11.13;;;;;;;4.86;100.00;101283.97;2089261;28;20203;-66
2023/04/06 01:00:07;;;;;;;14.77;11.60;;;;;;;4.89;100.00;101286.75;2089332;28;20239;-65
2023/04/06 01:01:08;;;;;;;12.80;10.80;;;;;;;4.94;100.00;101280.13;2089113;28;20615;-66
2023/04/06 01:02:08;;;;;;;12.50;11.10;;;;;;;4.91;100.00;101278.94;2089763;28;20206;-66
2023/04/06 01:03:09;;;;;;;11.70;10.50;;;;;;;4.98;100.00;101280.94;2097386;28;20570;-66
2023/04/06 01:04:09;;;;;;;11.77;10.57;;;;;;;4.99;100.00;101282.53;2081839;28;20198;-66
2023/04/06 01:05:10;;;;;;;11.77;10.57;;;;;;;4.94;100.00;101291.09;2080499;28;20260;-66
2023/04/06 01:06:10;;;;;;;11.67;10.40;;;;;;;4.80;100.00;101261.56;2088867;28;20499;-66
2023/04/06 01:07:11;;;;;;;12.97;11.30;;;;;;;4.93;100.00;101267.56;2080588;28;20194;-66
2023/04/06 01:08:11;;;;;;;12.23;10.70;;;;;;;4.94;100.00;101296.59;2080385;28;20284;-67
2023/04/06 01:09:11;;;;;;;12.23;10.80;;;;;;;4.90;100.00;101277.34;2089258;28;20190;-66
2023/04/06 01:10:25;;;;;;;12.57;11.03;;;;;;;4.48;100.00;101213.78;2089700;28;20179;-66
2023/04/06 01:11:26;;;;;;;17.38;11.13;;;;;;;4.99;100.00;101268.78;2096315;28;20172;-66
2023/04/06 01:12:26;;;;;;;11.70;10.50;;;;;;;5.04;100.00;101276.69;2089531;28;20223;-66
2023/04/06 01:13:27;;;;;;;12.03;10.67;;;;;;;5.05;100.00;101276.31;2089131;28;20190;-66
2023/04/06 01:14:27;;;;;;;12.30;11.00;;;;;;;5.08;100.00;101294.75;2089047;28;20654;-66
2023/04/06 01:15:29;;;;;;;12.33;10.80;;;;;;;4.75;100.00;101222.66;2088634;28;20274;-66
2023/04/06 01:16:29;;;;;;;11.68;10.48;;;;;;;5.07;100.00;101262.97;2089165;28;20251;-66
2023/04/06 01:17:30;;;;;;;11.70;10.27;;;;;;;5.06;100.00;101263.34;2089312;28;20271;-66
2023/04/06 01:18:30;;;;;;;11.27;10.13;;;;;;;5.05;100.00;101259.84;2091129;28;20188;-66
2023/04/06 01:19:31;;;;;;;11.30;10.20;;;;;;;4.94;100.00;101244.41;2096777;28;20185;-66
2023/04/06 01:20:31;;;;;;;10.93;9.67;;;;;;;5.09;100.00;101265.34;2089721;28;20174;-66
2023/04/06 01:21:32;;;;;;;10.67;9.67;;;;;;;5.11;100.00;101263.00;2089042;28;20206;-66
2023/04/06 01:22:32;;;;;;;12.00;9.97;;;;;;;5.06;100.00;101271.59;2089519;28;20195;-66
2023/04/06 01:23:33;;;;;;;11.47;10.27;;;;;;;5.09;100.00;101254.34;2089123;28;20599;-66
2023/04/06 01:24:33;;;;;;;10.60;9.50;;;;;;;5.09;100.00;101257.91;2089237;28;20278;-66
2023/04/06 01:25:34;;;;;;;11.43;10.03;;;;;;;5.13;100.00;101249.69;2088337;28;20202;-66
2023/04/06 01:26:35;;;;;;;11.37;9.90;;;;;;;5.11;100.00;101249.25;2089411;28;20651;-66
2023/04/06 01:27:36;;;;;;;14.48;9.93;;;;;;;4.39;100.00;101144.72;2088918;28;20224;-66
2023/04/06 01:28:37;;;;;;;10.70;9.60;;;;;;;4.22;100.00;101109.66;2089845;28;20196;-66
2023/04/06 01:29:40;;;;;;;12.05;10.38;;;;;;;5.16;100.00;101255.22;2098123;28;20232;-65
2023/04/06 01:30:41;;;;;;;11.50;10.13;;;;;;;5.15;100.00;101255.59;2089564;28;20271;-65
2023/04/06 01:31:42;;;;;;;11.37;9.97;;;;;;;5.22;100.00;101247.38;2095458;28;20192;-67
2023/04/06 01:32:43;;;;;;;12.37;9.77;;;;;;;4.34;100.00;101116.81;2091933;28;20198;-66
2023/04/06 01:33:43;;;;;;;10.75;9.65;;;;;;;5.26;100.00;101250.94;2089099;28;20222;-66
2023/04/06 01:34:44;;;;;;;10.83;9.73;;;;;;;5.26;100.00;101239.97;2089121;28;20189;-67
2023/04/06 01:35:45;;;;;;;13.50;10.70;;;;;;;5.28;100.00;101248.63;2088569;28;20265;-66
2023/04/06 01:36:45;;;;;;;12.23;9.43;;;;;;;5.28;100.00;101252.16;2079831;28;20189;-66
2023/04/06 01:37:46;;;;;;;10.83;9.37;;;;;;;4.70;100.00;101157.91;2080946;28;20262;-65
2023/04/06 01:38:46;;;;;;;11.47;10.30;;;;;;;5.23;100.00;101243.50;2089337;28;20600;-66
2023/04/06 01:39:46;;;;;;;11.43;10.03;;;;;;;5.10;100.00;101221.03;2092890;28;20180;-65
2023/04/06 01:40:47;;;;;;;11.00;9.83;;;;;;;5.22;100.00;101239.94;2091346;28;20209;-65
2023/04/06 01:41:47;;;;;;;10.60;9.50;;;;;;;5.21;100.00;101243.06;2088887;28;20196;-66
2023/04/06 01:42:48;;;;;;;12.37;9.63;;;;;;;5.13;100.00;101211.22;2088773;28;20202;-66
2023/04/06 01:43:49;;;;;;;9.93;8.93;;;;;;;5.34;100.00;101242.38;2088801;28;20182;-66
2023/04/06 01:44:49;;;;;;;11.40;9.80;;;;;;;5.27;100.00;101225.03;2089066;28;20187;-66
2023/04/06 01:45:50;;;;;;;10.93;9.77;;;;;;;5.38;100.00;101240.44;2089331;28;20194;-66
2023/04/06 01:46:51;;;;;;;10.70;9.57;;;;;;;5.32;100.00;101232.94;2089164;28;20648;-66
2023/04/06 01:47:51;;;;;;;10.37;8.73;;;;;;;5.41;100.00;101238.91;2089145;28;20269;-66
2023/04/06 01:48:52;;;;;;;10.77;9.67;;;;;;;5.02;100.00;101180.16;2089049;28;20202;-67
2023/04/06 01:49:52;;;;;;;11.07;9.37;;;;;;;5.26;100.00;101212.47;2088695;28;20715;-67
2023/04/06 01:50:54;;;;;;;11.17;10.00;;;;;;;5.42;100.00;101235.78;2091966;28;20706;-67
2023/04/06 01:51:54;;;;;;;11.30;9.77;;;;;;;5.37;100.00;101233.38;2094674;28;20603;-66
2023/04/06 01:52:55;;;;;;;10.80;9.70;;;;;;;5.48;100.00;101233.47;2088731;28;20182;-66
2023/04/06 01:53:55;;;;;;;11.90;9.97;;;;;;;5.46;100.00;101230.28;2088797;28;20179;-66
2023/04/06 01:54:56;;;;;;;11.87;10.10;;;;;;;4.98;100.00;101157.34;2097699;28;20181;-67
2023/04/06 01:55:56;;;;;;;10.80;9.63;;;;;;;5.45;100.00;101235.03;2089606;28;20245;-66
2023/04/06 01:56:57;;;;;;;11.03;9.83;;;;;;;5.47;100.00;101238.16;2094264;28;20190;-66
2023/04/06 01:57:57;;;;;;;12.67;10.00;;;;;;;5.32;100.00;101214.50;2092257;28;20679;-66
2023/04/06 01:58:58;;;;;;;12.83;9.50;;;;;;;5.46;100.00;101233.84;2088968;28;20205;-66
2023/04/06 01:59:58;;;;;;;13.37;9.50;;;;;;;5.43;100.00;101234.59;2090786;28;20233;-66
2023/04/06 02:00:58;;;;;;;10.37;9.20;;;;;;;5.35;100.00;101226.69;2095508;28;20340;-67
2023/04/06 02:01:59;;;;;;;10.50;9.40;;;;;;;5.36;100.00;101220.00;2089056;28;20656;-66
2023/04/06 02:03:00;;;;;;;11.63;9.70;;;;;;;4.81;100.00;101133.28;2089304;28;20183;-66
2023/04/06 02:04:00;;;;;;;10.53;9.30;;;;;;;5.42;100.00;101223.97;2088532;28;20712;-66
2023/04/06 02:05:01;;;;;;;11.10;9.43;;;;;;;5.38;100.00;101223.97;2088856;28;20199;-66
2023/04/06 02:06:01;;;;;;;10.60;9.50;;;;;;;5.39;100.00;101220.03;2088491;28;20201;-66
2023/04/06 02:07:01;;;;;;;11.73;9.87;;;;;;;5.38;100.00;101214.94;2088948;28;20193;-66
2023/04/06 02:08:02;;;;;;;11.33;9.57;;;;;;;5.34;100.00;101222.38;2080286;28;23668;-66
2023/04/06 02:09:02;;;;;;;10.07;9.00;;;;;;;5.33;100.00;101220.78;2081189;28;20178;-67
2023/04/06 02:10:03;;;;;;;12.50;9.73;;;;;;;5.16;100.00;101186.53;2088611;28;20188;-66
2023/04/06 02:11:04;;;;;;;11.03;9.43;;;;;;;4.67;100.00;101105.72;2088964;28;20221;-66
2023/04/06 02:12:05;;;;;;;11.63;9.87;;;;;;;5.42;100.00;101210.22;2088686;28;20207;-66
2023/04/06 02:13:05;;;;;;;10.53;9.53;;;;;;;5.32;100.00;101194.47;2088945;28;20683;-66
2023/04/06 02:14:06;;;;;;;11.67;9.60;;;;;;;5.49;100.00;101224.81;2088587;28;20246;-67
2023/04/06 02:15:07;;;;;;;10.93;9.50;;;;;;;5.41;100.00;101208.66;2088863;28;20285;-66
2023/04/06 02:16:07;;;;;;;11.90;10.43;;;;;;;5.39;100.00;101203.53;2088367;28;20225;-66
2023/04/06 02:17:08;;;;;;;10.97;9.77;;;;;;;5.42;100.00;101227.53;2088739;28;20168;-66
2023/04/06 02:18:09;;;;;;;11.60;9.70;;;;;;;5.38;100.00;101221.22;2088681;28;20173;-67
2023/04/06 02:19:10;;;;;;;11.82;9.98;;;;;;;5.33;100.00;101210.56;2089252;28;20222;-66
2023/04/06 02:20:10;;;;;;;12.03;9.60;;;;;;;5.32;100.00;101200.75;2088559;28;20664;-67
2023/04/06 02:21:11;;;;;;;11.63;8.93;;;;;;;5.30;100.00;101207.81;2094642;28;20190;-67
2023/04/06 02:22:11;;;;;;;11.70;9.77;;;;;;;5.28;100.00;101199.94;2096202;28;20247;-67
2023/04/06 02:23:12;;;;;;;11.00;9.90;;;;;;;5.47;100.00;101218.91;2092587;28;20651;-66
2023/04/06 02:24:12;;;;;;;11.47;10.27;;;;;;;5.45;100.00;101212.22;2088181;28;20683;-66
2023/04/06 02:25:13;;;;;;;11.63;9.67;;;;;;;5.34;100.00;101209.41;2088643;28;20179;-67
2023/04/06 02:26:14;;;;;;;13.57;9.67;;;;;;;4.72;100.00;101121.84;2088009;28;20217;-66
2023/04/06 02:27:15;;;;;;;12.35;9.70;;;;;;;5.33;100.00;101213.31;2088537;28;20193;-66
2023/04/06 02:28:15;;;;;;;10.77;9.67;;;;;;;5.37;100.00;101210.59;2088748;28;20723;-67
2023/04/06 02:29:16;;;;;;;11.87;9.50;;;;;;;5.22;100.00;101192.44;2095580;28;20197;-66
2023/04/06 02:30:16;;;;;;;10.87;9.70;;;;;;;5.35;100.00;101212.94;2090957;28;20229;-67
2023/04/06 02:31:17;;;;;;;11.77;10.53;;;;;;;5.39;100.00;101208.25;2088311;28;20197;-66
2023/04/06 02:32:17;;;;;;;12.83;9.83;;;;;;;5.34;100.00;101214.13;2092103;28;20668;-67
2023/04/06 02:33:17;;;;;;;10.97;9.70;;;;;;;5.32;100.00;101205.44;2094593;28;20208;-66
2023/04/06 02:34:18;;;;;;;10.97;9.87;;;;;;;5.26;100.00;101212.47;2088708;28;20183;-66
2023/04/06 02:35:18;;;;;;;10.83;9.73;;;;;;;5.16;100.00;101188.47;2097487;28;20260;-67
2023/04/06 02:36:19;;;;;;;11.00;9.80;;;;;;;5.31;100.00;101207.44;2088435;28;20278;-66
2023/04/06 02:37:19;;;;;;;12.80;9.70;;;;;;;5.32;100.00;101206.25;2088608;28;20201;-67
2023/04/06 02:38:20;;;;;;;11.77;9.20;;;;;;;5.25;100.00;101206.22;2093805;28;20198;-66
2023/04/06 02:39:20;;;;;;;10.50;9.37;;;;;;;5.24;100.00;101206.59;2091937;28;20198;-66
2023/04/06 02:40:21;;;;;;;11.03;9.57;;;;;;;5.24;100.00;101204.63;2093124;28;20657;-66
2023/04/06 02:41:21;;;;;;;10.87;9.23;;;;;;;5.03;100.00;101160.50;2088027;28;20177;-66
2023/04/06 02:42:22;;;;;;;11.73;10.10;;;;;;;5.28;100.00;101216.44;2088221;28;20740;-66
2023/04/06 02:43:22;;;;;;;12.30;10.00;;;;;;;5.33;100.00;101205.06;2089296;28;20250;-66
2023/04/06 02:44:23;;;;;;;12.83;9.43;;;;;;;5.25;100.00;101197.97;2088503;28;20197;-66
2023/04/06 02:45:23;;;;;;;12.27;10.20;;;;;;;5.26;100.00;101213.28;2088467;28;20678;-66
2023/04/06 02:46:24;;;;;;;11.93;10.17;;;;;;;5.20;100.00;101206.56;2088303;28;20198;-66
2023/04/06 02:47:24;;;;;;;11.23;9.73;;;;;;;5.12;100.00;101185.69;2092821;28;20731;-66
2023/04/06 02:48:25;;;;;;;13.13;10.53;;;;;;;5.20;100.00;101206.56;2093199;28;20657;-66
2023/04/06 02:49:25;;;;;;;11.80;9.50;;;;;;;5.23;100.00;101207.78;2088605;28;20174;-66
2023/04/06 02:50:26;;;;;;;11.60;10.10;;;;;;;4.89;100.00;101149.44;2088404;28;20185;-66
2023/04/06 02:51:27;;;;;;;13.03;10.13;;;;;;;5.27;100.00;101206.63;2088156;28;20683;-66
2023/04/06 02:52:27;;;;;;;13.53;10.07;;;;;;;5.31;100.00;101204.69;2097222;28;20193;-66
2023/04/06 02:53:27;;;;;;;11.17;9.57;;;;;;;5.31;100.00;101203.88;2089672;28;20858;-66
2023/04/06 02:54:28;;;;;;;11.43;9.93;;;;;;;5.37;100.00;101232.56;2088882;28;20229;-66
2023/04/06 02:55:28;;;;;;;12.47;10.20;;;;;;;5.34;100.00;101206.66;2091565;28;20278;-66
2023/04/06 02:56:29;;;;;;;11.93;10.10;;;;;;;5.17;100.00;101179.84;2088303;28;20222;-66
2023/04/06 02:57:29;;;;;;;10.80;9.57;;;;;;;5.33;100.00;101199.59;2088451;28;20651;-66
2023/04/06 02:58:30;;;;;;;10.43;9.27;;;;;;;5.35;100.00;101200.00;2088469;28;20183;-67
2023/04/06 02:59:30;;;;;;;11.43;9.87;;;;;;;5.37;100.00;101189.41;2088264;28;20301;-66
2023/04/06 03:00:31;;;;;;;11.67;9.47;;;;;;;5.33;100.00;101194.09;2088876;28;20241;-66
2023/04/06 03:01:31;;;;;;;11.97;10.40;;;;;;;5.41;100.00;101205.91;2088392;28;20210;-66
2023/04/06 03:02:32;;;;;;;11.57;9.73;;;;;;;5.38;100.00;101198.44;2088371;28;20253;-66
2023/04/06 03:03:32;;;;;;;15.53;10.40;;;;;;;5.40;100.00;101210.63;2088597;28;20272;-65
2023/04/06 03:04:32;;;;;;;11.90;9.83;;;;;;;5.44;100.00;101203.19;2087922;28;20738;-67
2023/04/06 03:05:33;;;;;;;13.33;10.57;;;;;;;5.45;100.00;101202.03;2088038;28;20187;-66
2023/04/06 03:06:33;;;;;;;11.20;9.30;;;;;;;5.25;100.00;101159.50;2089800;28;20654;-67
2023/04/06 03:07:34;;;;;;;11.73;10.33;;;;;;;5.51;100.00;101202.44;2096554;28;20185;-66
2023/04/06 03:08:34;;;;;;;12.57;10.20;;;;;;;5.53;100.00;101197.38;2089004;28;20559;-66
2023/04/06 03:09:38;;;;;;;11.67;10.07;;;;;;;5.39;100.00;101203.53;2088562;28;20208;-66
2023/04/06 03:10:38;;;;;;;12.50;9.85;;;;;;;5.41;100.00;101198.47;2088196;28;20321;-66
2023/04/06 03:11:38;;;;;;;12.03;10.20;;;;;;;5.35;100.00;101196.44;2087962;28;20260;-66
2023/04/06 03:12:41;;;;;;;12.77;10.57;;;;;;;4.50;100.00;101057.75;2092186;28;20196;-66
2023/04/06 03:13:41;;;;;;;10.80;9.70;;;;;;;5.27;100.00;101205.81;2093366;28;20281;-67
2023/04/06 03:14:42;;;;;;;13.50;10.70;;;;;;;5.30;100.00;101189.38;2088155;28;20676;-66
2023/04/06 03:15:42;;;;;;;11.83;10.27;;;;;;;5.28;100.00;101191.69;2088294;28;20174;-66
2023/04/06 03:16:43;;;;;;;13.20;10.60;;;;;;;5.16;100.00;101185.72;2097231;28;20217;-66
2023/04/06 03:17:43;;;;;;;11.10;9.90;;;;;;;5.29;100.00;101203.50;2088604;28;20217;-66
2023/04/06 03:18:44;;;;;;;12.83;10.50;;;;;;;5.27;100.00;101195.63;2088434;28;20197;-66
2023/04/06 03:19:45;;;;;;;12.48;10.32;;;;;;;5.32;100.00;101197.22;2088593;28;20201;-66
2023/04/06 03:20:47;;;;;;;11.93;10.07;;;;;;;5.30;100.00;101205.06;2087813;28;20190;-66
2023/04/06 03:21:47;;;;;;;12.52;10.32;;;;;;;5.29;100.00;101195.25;2089819;28;20190;-66
2023/04/06 03:22:47;;;;;;;11.67;10.33;;;;;;;5.31;100.00;101204.69;2094184;28;20218;-66
2023/04/06 03:23:50;;;;;;;12.10;9.83;;;;;;;5.25;100.00;101197.16;2088518;28;20177;-65
2023/04/06 03:24:51;;;;;;;11.65;10.13;;;;;;;5.25;100.00;101200.72;2079041;28;20246;-66
2023/04/06 03:25:51;;;;;;;11.83;9.83;;;;;;;5.27;100.00;101192.88;2087948;28;20177;-66
2023/04/06 03:26:52;;;;;;;12.20;10.03;;;;;;;5.34;100.00;101198.41;2089094;28;20195;-66
2023/04/06 03:27:52;;;;;;;11.60;10.23;;;;;;;5.41;100.00;101195.72;2088582;28;20280;-66
2023/04/06 03:28:52;;;;;;;12.43;10.57;;;;;;;4.94;100.00;101131.81;2088309;28;20243;-67
2023/04/06 03:29:53;;;;;;;14.73;10.67;;;;;;;4.31;100.00;101052.50;2088152;28;20212;-66
2023/04/06 03:30:53;;;;;;;11.43;10.10;;;;;;;5.30;100.00;101191.31;2087914;28;20251;-65
2023/04/06 03:31:54;;;;;;;11.93;10.23;;;;;;;5.26;100.00;101196.00;2088468;28;20176;-66
2023/04/06 03:32:55;;;;;;;12.25;10.63;;;;;;;5.27;100.00;101197.56;2087963;28;20213;-65
2023/04/06 03:33:56;;;;;;;12.87;10.37;;;;;;;5.18;100.00;101186.91;2089163;28;20183;-66
2023/04/06 03:34:56;;;;;;;13.03;10.33;;;;;;;5.05;100.00;101149.94;2087616;28;20322;-66
2023/04/06 03:35:56;;;;;;;11.30;10.10;;;;;;;5.18;100.00;101169.66;2087638;28;20202;-67
2023/04/06 03:36:57;;;;;;;13.27;10.23;;;;;;;5.18;100.00;101162.19;2088161;28;20205;-66
2023/04/06 03:37:57;;;;;;;11.40;9.63;;;;;;;5.26;100.00;101169.31;2088679;28;20196;-67
2023/04/06 03:38:58;;;;;;;11.93;10.37;;;;;;;5.42;100.00;101189.03;2090076;28;20201;-66
2023/04/06 03:39:58;;;;;;;11.73;10.50;;;;;;;5.35;100.00;101168.97;2093461;28;20314;-66
2023/04/06 03:40:58;;;;;;;12.10;10.47;;;;;;;5.49;100.00;101191.81;2089540;28;20699;-66
2023/04/06 03:41:59;;;;;;;11.50;10.30;;;;;;;5.44;100.00;101192.19;2090929;28;20172;-67
2023/04/06 03:43:00;;;;;;;12.97;10.20;;;;;;;5.38;100.00;101179.97;2089930;28;20212;-66
2023/04/06 03:44:00;;;;;;;13.00;10.10;;;;;;;5.41;100.00;101183.94;2096125;28;20702;-67
2023/04/06 03:45:00;;;;;;;14.33;10.60;;;;;;;5.46;100.00;101189.06;2092196;28;20275;-66
2023/04/06 03:46:01;;;;;;;13.80;10.43;;;;;;;5.50;100.00;101182.44;2089688;28;20193;-66
2023/04/06 03:47:02;;;;;;;12.47;10.73;;;;;;;5.51;100.00;101185.94;2092505;28;20703;-67
2023/04/06 03:48:02;;;;;;;12.60;10.60;;;;;;;5.28;100.00;101141.47;2098243;28;20205;-66
2023/04/06 03:49:03;;;;;;;12.50;10.03;;;;;;;5.53;100.00;101181.63;2097208;28;20702;-66
2023/04/06 03:50:04;;;;;;;12.60;10.37;;;;;;;5.46;100.00;101189.84;2090425;28;20189;-66
2023/04/06 03:51:05;;;;;;;11.70;9.90;;;;;;;5.53;100.00;101183.63;2089311;28;20215;-66
2023/04/06 03:52:05;;;;;;;11.93;10.03;;;;;;;5.56;100.00;101177.34;2089919;28;20199;-66
2023/04/06 03:53:05;;;;;;;12.53;10.93;;;;;;;5.54;100.00;101179.69;2089959;28;20231;-66
2023/04/06 03:54:06;;;;;;;12.40;10.33;;;;;;;5.46;100.00;101173.38;2090107;28;20201;-66
2023/04/06 03:55:07;;;;;;;12.57;10.37;;;;;;;5.54;100.00;101187.94;2092033;28;20426;-66
2023/04/06 03:56:08;;;;;;;12.80;10.32;;;;;;;4.93;100.00;101100.03;2089359;28;20170;-67
2023/04/06 03:57:08;;;;;;;12.80;10.57;;;;;;;4.77;100.00;101072.09;2089636;28;20671;-65
2023/04/06 03:58:09;;;;;;;11.10;9.90;;;;;;;5.48;100.00;101178.47;2088319;28;20281;-65
2023/04/06 03:59:09;;;;;;;13.03;10.30;;;;;;;5.46;100.00;101178.06;2096106;28;20185;-66
2023/04/06 04:00:10;;;;;;;11.97;9.50;;;;;;;5.42;100.00;101185.50;2090907;28;20681;-66
2023/04/06 04:01:11;;;;;;;12.60;10.32;;;;;;;5.38;100.00;101177.22;2088954;28;20193;-66
2023/04/06 04:02:11;;;;;;;12.27;10.03;;;;;;;5.40;100.00;101180.41;2089394;28;20193;-60
2023/04/06 04:03:12;;;;;;;11.10;9.90;;;;;;;5.46;100.00;101183.56;2093816;28;20694;-66
2023/04/06 04:04:12;;;;;;;12.00;10.03;;;;;;;5.47;100.00;101193.38;2090909;28;20211;-66
2023/04/06 04:05:13;;;;;;;13.13;10.70;;;;;;;5.42;100.00;101175.31;2089410;28;20395;-66
2023/04/06 04:06:13;;;;;;;12.37;10.50;;;;;;;5.49;100.00;101189.06;2089162;28;20208;-67
2023/04/06 04:07:14;;;;;;;11.10;9.87;;;;;;;5.45;100.00;101182.00;2090372;28;20566;-68
2023/04/06 04:08:15;;;;;;;14.20;10.53;;;;;;;5.21;100.00;101149.66;2097005;28;20189;-69
2023/04/06 04:09:15;;;;;;;12.17;10.37;;;;;;;5.47;100.00;101182.38;2091590;28;20282;-68
2023/04/06 04:10:16;;;;;;;11.70;9.50;;;;;;;5.39;100.00;101178.03;2089353;28;20231;-69
2023/04/06 04:11:16;;;;;;;12.87;10.37;;;;;;;5.38;100.00;101177.22;2083449;28;20250;-68
2023/04/06 04:12:17;;;;;;;11.93;10.47;;;;;;;5.37;100.00;101175.66;2083284;28;20655;-70
2023/04/06 04:13:18;;;;;;;12.13;10.50;;;;;;;5.41;100.00;101172.94;2089823;28;20257;-70
2023/04/06 04:14:18;;;;;;;13.80;10.45;;;;;;;5.36;100.00;101173.28;2089638;28;20566;-69
2023/04/06 04:15:19;;;;;;;13.30;10.57;;;;;;;5.38;100.00;101177.22;2090306;28;20223;-68
2023/04/06 04:16:19;;;;;;;14.47;10.80;;;;;;;5.27;100.00;101161.84;2089129;28;20194;-68
2023/04/06 04:17:21;;;;;;;11.43;10.23;;;;;;;5.39;100.00;101180.78;2089469;28;20666;-68
2023/04/06 04:18:22;;;;;;;13.45;10.43;;;;;;;4.68;100.00;101079.84;2089531;28;20274;-69
2023/04/06 04:19:22;;;;;;;16.60;10.73;;;;;;;5.33;100.00;101180.34;2089412;28;20716;-68
2023/04/06 04:20:23;;;;;;;12.30;10.90;;;;;;;5.40;100.00;101185.91;2088700;28;20201;-69
2023/04/06 04:21:23;;;;;;;13.17;11.30;;;;;;;5.40;100.00;101183.16;2089099;28;20190;-65
2023/04/06 04:22:24;;;;;;;13.70;11.10;;;;;;;5.46;100.00;101183.56;2094675;28;20188;-68
2023/04/06 04:23:24;;;;;;;13.10;10.77;;;;;;;5.48;100.00;101181.22;2098273;28;20269;-68
2023/04/06 04:24:25;;;;;;;14.17;10.70;;;;;;;5.36;100.00;101163.09;2098075;28;20272;-69
2023/04/06 04:25:26;;;;;;;14.63;10.65;;;;;;;5.35;100.00;101167.03;2090565;28;20191;-69
2023/04/06 04:26:26;;;;;;;13.67;10.90;;;;;;;5.36;100.00;101179.59;2088922;28;20195;-69
2023/04/06 04:27:27;;;;;;;11.07;9.67;;;;;;;5.41;100.00;101212.22;2086223;28;20225;-68
2023/04/06 04:28:27;;;;;;;12.13;10.83;;;;;;;5.43;100.00;101178.84;2091474;28;20229;-69
2023/04/06 04:29:28;;;;;;;11.70;10.50;;;;;;;5.36;100.00;101182.34;2079496;28;20188;-68
2023/04/06 04:30:28;;;;;;;13.63;11.07;;;;;;;5.22;100.00;101184.19;2078683;28;20313;-68
2023/04/06 04:31:29;;;;;;;13.50;10.20;;;;;;;5.38;100.00;101182.72;2087425;28;20189;-66
2023/04/06 04:32:30;;;;;;;11.70;10.30;;;;;;;5.31;100.00;101184.66;2088107;28;20202;-67
2023/04/06 04:33:30;;;;;;;13.57;10.87;;;;;;;4.69;100.00;101126.16;2091370;28;20189;-66
2023/04/06 04:34:31;;;;;;;12.63;10.23;;;;;;;5.34;100.00;101187.41;2084609;28;20195;-66
2023/04/06 04:35:31;;;;;;;15.10;10.23;;;;;;;5.37;100.00;101186.66;2078679;28;20183;-67
2023/04/06 04:36:32;;;;;;;13.43;10.70;;;;;;;5.36;100.00;101181.53;2087406;28;20213;-68